createdAt,value
2019-06-10T00:01:40.848Z,11.00
2019-06-10T00:04:12.537Z,11.00
2019-06-10T00:06:41.529Z,11.00
2019-06-10T00:09:11.756Z,10.90
2019-06-10T00:11:41.327Z,11.00
2019-06-10T00:14:10.858Z,10.90
2019-06-10T00:16:41.572Z,11.00
2019-06-10T00:19:12.800Z,10.90
2019-06-10T00:21:41.527Z,10.90
2019-06-10T00:24:11.844Z,10.90
2019-06-10T00:26:41.365Z,10.90
2019-06-10T00:29:12.007Z,10.90
2019-06-10T00:31:41.739Z,10.90
2019-06-10T00:34:12.440Z,10.90
2019-06-10T00:36:42.004Z,10.90
2019-06-10T00:39:13.588Z,10.90
2019-06-10T00:41:42.802Z,10.90
2019-06-10T00:44:16.946Z,10.90
2019-06-10T00:46:45.820Z,11.00
2019-06-10T00:49:14.899Z,11.00
2019-06-10T00:51:43.850Z,11.00
2019-06-10T00:54:15.411Z,11.10
2019-06-10T00:56:43.494Z,11.10
2019-06-10T00:59:15.097Z,11.10
2019-06-10T01:01:43.105Z,11.00
2019-06-10T01:04:15.956Z,11.00
2019-06-10T01:06:42.521Z,11.00
2019-06-10T01:09:13.501Z,11.00
2019-06-10T01:11:42.098Z,11.00
2019-06-10T01:14:12.597Z,11.00
2019-06-10T01:16:41.602Z,11.00
2019-06-10T01:19:12.786Z,11.00
2019-06-10T01:21:41.556Z,11.00
2019-06-10T01:24:12.066Z,11.00
2019-06-10T01:26:41.231Z,11.00
2019-06-10T01:29:12.305Z,11.00
2019-06-10T01:31:41.975Z,11.00
2019-06-10T01:34:12.417Z,11.00
2019-06-10T01:36:41.620Z,11.00
2019-06-10T01:39:12.025Z,10.90
2019-06-10T01:41:41.207Z,10.90
2019-06-10T01:44:11.537Z,10.90
2019-06-10T01:46:41.065Z,10.90
2019-06-10T01:49:12.954Z,10.90
2019-06-10T01:51:41.270Z,10.90
2019-06-10T01:54:12.408Z,10.80
2019-06-10T01:56:41.036Z,10.90
2019-06-10T01:59:12.264Z,10.90
2019-06-10T02:01:42.112Z,10.90
2019-06-10T02:04:13.067Z,10.90
2019-06-10T02:06:41.545Z,10.80
2019-06-10T02:09:13.530Z,10.80
2019-06-10T02:11:41.525Z,10.80
2019-06-10T02:14:14.623Z,10.80
2019-06-10T02:16:41.564Z,10.80
2019-06-10T02:19:12.929Z,10.80
2019-06-10T02:21:41.749Z,10.80
2019-06-10T02:24:14.035Z,10.80
2019-06-10T02:26:42.153Z,10.80
2019-06-10T02:29:12.809Z,10.90
2019-06-10T02:31:43.230Z,10.90
2019-06-10T02:34:17.034Z,10.80
2019-06-10T02:36:44.602Z,10.80
2019-06-10T02:39:21.457Z,10.90
2019-06-10T02:41:44.786Z,10.80
2019-06-10T02:44:17.253Z,10.90
2019-06-10T02:46:44.503Z,10.90
2019-06-10T02:49:29.689Z,10.90
2019-06-10T02:51:44.397Z,10.90
2019-06-10T02:54:16.161Z,10.90
2019-06-10T02:56:44.460Z,10.90
2019-06-10T02:59:13.570Z,10.90
2019-06-10T03:01:43.866Z,10.90
2019-06-10T03:04:13.779Z,10.90
2019-06-10T03:06:44.990Z,10.90
2019-06-10T03:09:14.341Z,10.90
2019-06-10T03:11:44.795Z,10.90
2019-06-10T03:14:14.103Z,10.90
2019-06-10T03:16:47.590Z,10.90
2019-06-10T03:19:33.287Z,10.90
2019-06-10T03:21:47.132Z,10.90
2019-06-10T03:24:17.006Z,10.90
2019-06-10T03:26:46.101Z,10.90
2019-06-10T03:29:15.010Z,10.90
2019-06-10T03:31:47.939Z,10.90
2019-06-10T03:34:15.593Z,10.90
2019-06-10T03:36:45.067Z,10.90
2019-06-10T03:39:14.047Z,10.90
2019-06-10T03:41:44.291Z,10.90
2019-06-10T03:44:16.927Z,10.90
2019-06-10T03:46:45.837Z,10.90
2019-06-10T03:49:17.056Z,10.90
2019-06-10T03:51:50.056Z,10.90
2019-06-10T03:54:19.258Z,10.90
2019-06-10T03:56:52.092Z,10.90
2019-06-10T03:59:23.989Z,10.90
2019-06-10T04:01:52.919Z,10.90
2019-06-10T04:04:24.005Z,10.90
2019-06-10T04:06:53.286Z,10.90
2019-06-10T04:09:25.838Z,10.90
2019-06-10T04:11:55.083Z,10.90
2019-06-10T04:14:25.118Z,10.90
2019-06-10T04:16:54.671Z,10.90
2019-06-10T04:19:25.807Z,10.90
2019-06-10T04:21:55.288Z,10.90
2019-06-10T04:24:25.413Z,10.90
2019-06-10T04:26:54.815Z,10.90
2019-06-10T04:29:25.822Z,11.00
2019-06-10T04:31:54.394Z,11.00
2019-06-10T04:34:26.791Z,10.90
2019-06-10T04:36:53.915Z,10.90
2019-06-10T04:39:26.043Z,11.00
2019-06-10T04:41:54.333Z,11.00
2019-06-10T04:44:28.138Z,11.00
2019-06-10T04:46:57.557Z,11.00
2019-06-10T04:49:27.105Z,11.00
2019-06-10T04:51:57.458Z,11.00
2019-06-10T04:54:27.033Z,11.00
2019-06-10T04:56:57.085Z,11.00
2019-06-10T04:59:28.472Z,11.00
2019-06-10T05:01:56.819Z,11.10
2019-06-10T05:04:28.000Z,11.10
2019-06-10T05:06:56.681Z,11.10
2019-06-10T05:09:27.292Z,11.20
2019-06-10T05:11:56.374Z,11.20
2019-06-10T05:14:27.007Z,11.30
2019-06-10T05:16:56.079Z,11.30
2019-06-10T05:19:27.248Z,11.30
2019-06-10T05:21:55.540Z,11.40
2019-06-10T05:24:26.702Z,11.40
2019-06-10T05:26:54.992Z,11.40
2019-06-10T05:29:26.842Z,11.50
2019-06-10T05:31:54.480Z,11.50
2019-06-10T05:34:26.452Z,11.60
2019-06-10T05:36:53.939Z,11.60
2019-06-10T05:39:24.257Z,11.60
2019-06-10T05:41:53.520Z,11.60
2019-06-10T05:44:24.195Z,11.70
2019-06-10T05:46:53.233Z,11.70
2019-06-10T05:49:24.116Z,11.70
2019-06-10T05:51:52.805Z,11.70
2019-06-10T05:54:23.377Z,11.70
2019-06-10T05:56:52.599Z,11.80
2019-06-10T05:59:23.027Z,11.80
2019-06-10T06:01:53.838Z,11.80
2019-06-10T06:04:35.923Z,11.80
2019-06-10T06:07:05.140Z,11.80
2019-06-10T06:09:35.323Z,11.90
2019-06-10T06:12:04.740Z,11.90
2019-06-10T06:14:35.608Z,11.90
2019-06-10T06:17:04.285Z,11.90
2019-06-10T06:19:53.500Z,11.90
2019-06-10T06:22:22.523Z,11.90
2019-06-10T06:24:52.248Z,12.00
2019-06-10T06:27:22.497Z,12.10
2019-06-10T06:29:52.481Z,12.10
2019-06-10T06:32:23.615Z,12.20
2019-06-10T06:34:52.772Z,12.10
2019-06-10T06:37:23.208Z,12.20
2019-06-10T06:39:52.505Z,12.20
2019-06-10T06:42:22.868Z,12.10
2019-06-10T06:44:52.587Z,12.20
2019-06-10T06:47:22.605Z,12.30
2019-06-10T06:49:53.167Z,12.30
2019-06-10T06:52:46.534Z,12.30
2019-06-10T06:54:53.190Z,12.30
2019-06-10T06:57:22.396Z,12.40
2019-06-10T06:59:52.615Z,12.40
2019-06-10T07:02:22.772Z,12.60
2019-06-10T07:04:52.626Z,12.70
2019-06-10T07:07:22.495Z,12.80
2019-06-10T07:09:53.719Z,12.90
2019-06-10T07:12:25.383Z,13.00
2019-06-10T07:14:54.306Z,13.10
2019-06-10T07:17:23.230Z,13.10
2019-06-10T07:19:53.627Z,13.10
2019-06-10T07:22:23.361Z,13.10
2019-06-10T07:24:52.966Z,13.00
2019-06-10T07:27:22.651Z,12.90
2019-06-10T07:29:52.931Z,12.90
2019-06-10T07:32:22.744Z,12.80
2019-06-10T07:34:52.479Z,12.70
2019-06-10T07:37:23.239Z,12.80
2019-06-10T07:39:52.509Z,12.80
2019-06-10T07:42:22.782Z,12.80
2019-06-10T07:44:53.271Z,12.90
2019-06-10T07:47:23.087Z,13.10
2019-06-10T07:49:52.390Z,13.20
2019-06-10T07:52:23.490Z,13.20
2019-06-10T07:54:53.066Z,13.20
2019-06-10T07:57:22.618Z,13.30
2019-06-10T07:59:52.418Z,13.40
2019-06-10T08:02:23.128Z,13.70
2019-06-10T08:04:54.188Z,13.90
2019-06-10T08:07:22.675Z,14.10
2019-06-10T08:09:53.296Z,14.20
2019-06-10T08:12:23.269Z,14.10
2019-06-10T08:14:53.209Z,14.10
2019-06-10T08:17:22.684Z,14.20
2019-06-10T08:19:54.136Z,14.10
2019-06-10T08:22:31.188Z,14.10
2019-06-10T08:24:53.871Z,14.00
2019-06-10T08:27:22.896Z,14.10
2019-06-10T08:30:13.145Z,14.20
2019-06-10T08:32:24.485Z,14.30
2019-06-10T08:34:53.160Z,14.30
2019-06-10T08:37:23.466Z,14.50
2019-06-10T08:39:53.177Z,14.50
2019-06-10T08:42:23.286Z,14.90
2019-06-10T08:44:53.352Z,15.20
2019-06-10T08:47:22.986Z,15.30
2019-06-10T08:49:54.978Z,15.30
2019-06-10T08:52:23.964Z,15.30
2019-06-10T08:54:54.540Z,15.20
2019-06-10T08:57:24.007Z,15.10
2019-06-10T08:59:53.695Z,14.70
2019-06-10T09:02:23.194Z,14.50
2019-06-10T09:04:53.523Z,14.00
2019-06-10T09:07:24.019Z,13.80
2019-06-10T09:09:54.468Z,13.30
2019-06-10T09:12:30.373Z,13.40
2019-06-10T09:14:53.929Z,13.40
2019-06-10T09:17:23.014Z,13.40
2019-06-10T09:19:54.246Z,13.50
2019-06-10T09:22:23.624Z,13.40
2019-06-10T09:24:56.124Z,13.30
2019-06-10T09:27:26.683Z,13.30
2019-06-10T09:29:55.506Z,13.40
2019-06-10T09:32:24.471Z,13.40
2019-06-10T09:34:57.327Z,13.60
2019-06-10T09:37:24.376Z,13.60
2019-06-10T09:39:59.119Z,13.60
2019-06-10T09:42:24.026Z,13.60
2019-06-10T09:44:55.690Z,13.70
2019-06-10T09:47:24.386Z,13.90
2019-06-10T09:49:55.675Z,14.10
2019-06-10T09:52:24.164Z,14.60
2019-06-10T09:54:56.810Z,15.00
2019-06-10T09:57:23.940Z,15.40
2019-06-10T09:59:56.319Z,15.90
2019-06-10T10:02:23.536Z,16.20
2019-06-10T10:04:57.836Z,16.30
2019-06-10T10:07:23.009Z,16.30
2019-06-10T10:09:57.050Z,16.10
2019-06-10T10:12:23.918Z,16.40
2019-06-10T10:14:56.229Z,16.40
2019-06-10T10:17:23.419Z,16.40
2019-06-10T10:19:56.756Z,16.80
2019-06-10T10:22:23.029Z,17.20
2019-06-10T10:24:55.126Z,17.10
2019-06-10T10:27:23.387Z,17.30
2019-06-10T10:29:56.991Z,17.00
2019-06-10T10:32:23.331Z,16.70
2019-06-10T10:34:56.117Z,16.80
2019-06-10T10:37:23.055Z,16.80
2019-06-10T10:39:56.042Z,17.10
2019-06-10T10:42:23.637Z,17.40
2019-06-10T10:44:58.867Z,18.20
2019-06-10T10:47:27.032Z,17.90
2019-06-10T10:49:56.714Z,17.20
2019-06-10T10:52:24.902Z,17.00
2019-06-10T10:54:54.371Z,16.80
2019-06-10T10:57:24.486Z,16.60
2019-06-10T10:59:56.060Z,16.70
2019-06-10T11:02:23.995Z,17.10
2019-06-10T11:04:55.410Z,17.40
2019-06-10T11:07:23.693Z,17.80
2019-06-10T11:09:55.202Z,17.50
2019-06-10T11:12:25.323Z,16.80
2019-06-10T11:15:00.440Z,16.70
2019-06-10T11:17:26.033Z,16.40
2019-06-10T11:19:55.963Z,15.90
2019-06-10T11:22:25.077Z,15.10
2019-06-10T11:24:56.520Z,14.70
2019-06-10T11:27:25.448Z,14.70
2019-06-10T11:29:57.347Z,14.40
2019-06-10T11:32:25.002Z,14.20
2019-06-10T11:34:56.951Z,13.80
2019-06-10T11:37:24.467Z,13.70
2019-06-10T11:39:54.944Z,13.70
2019-06-10T11:42:23.995Z,13.70
2019-06-10T11:44:57.345Z,13.60
2019-06-10T11:47:23.473Z,13.40
2019-06-10T11:49:54.917Z,13.40
2019-06-10T11:52:23.127Z,13.20
2019-06-10T11:55:05.669Z,13.10
2019-06-10T11:57:22.990Z,13.20
2019-06-10T11:59:53.280Z,13.30
2019-06-10T12:02:23.008Z,13.20
2019-06-10T12:04:53.662Z,13.40
2019-06-10T12:07:22.554Z,13.20
2019-06-10T12:09:55.237Z,13.30
2019-06-10T12:12:22.414Z,13.10
2019-06-10T12:14:54.844Z,13.00
2019-06-10T12:17:41.055Z,12.90
2019-06-10T12:19:56.694Z,12.60
2019-06-10T12:22:24.191Z,12.60
2019-06-10T12:25:15.516Z,12.40
2019-06-10T12:27:23.704Z,12.20
2019-06-10T12:29:56.008Z,12.20
2019-06-10T12:32:23.240Z,12.20
2019-06-10T12:34:53.218Z,12.10
2019-06-10T12:37:23.823Z,12.00
2019-06-10T12:39:55.056Z,12.00
2019-06-10T12:42:23.916Z,11.80
2019-06-10T12:44:54.444Z,11.80
2019-06-10T12:47:25.213Z,11.80
2019-06-10T12:49:55.777Z,11.80
2019-06-10T12:52:24.779Z,11.80
2019-06-10T12:54:53.658Z,11.90
2019-06-10T12:57:23.035Z,11.80
2019-06-10T12:59:52.309Z,11.80
2019-06-10T13:02:24.024Z,11.80
2019-06-10T13:04:52.732Z,11.80
2019-06-10T13:07:24.097Z,11.80
2019-06-10T13:09:57.649Z,11.80
2019-06-10T13:12:26.940Z,11.90
2019-06-10T13:14:56.296Z,11.80
2019-06-10T13:17:25.419Z,11.80
2019-06-10T13:19:55.270Z,11.80
2019-06-10T13:22:24.609Z,11.90
2019-06-10T13:24:54.410Z,11.70
2019-06-10T13:27:24.372Z,11.70
2019-06-10T13:29:53.358Z,11.60
2019-06-10T13:32:22.414Z,11.60
2019-06-10T13:34:52.802Z,11.60
2019-06-10T13:37:22.787Z,11.60
2019-06-10T13:39:52.433Z,11.60
2019-06-10T13:42:22.723Z,11.50
2019-06-10T13:44:52.416Z,11.50
2019-06-10T13:47:25.872Z,11.40
2019-06-10T13:49:53.238Z,11.50
2019-06-10T13:52:23.302Z,11.50
2019-06-10T13:54:52.761Z,11.40
2019-06-10T13:57:23.003Z,11.30
2019-06-10T13:59:52.123Z,11.30
2019-06-10T14:02:42.970Z,11.30
2019-06-10T14:05:17.631Z,11.30
2019-06-10T14:07:44.760Z,11.20
2019-06-10T14:10:18.113Z,11.30
2019-06-10T14:12:48.822Z,11.30
2019-06-10T14:15:17.226Z,11.40
2019-06-10T14:17:46.600Z,11.50
2019-06-10T14:20:15.784Z,11.50
2019-06-10T14:22:44.696Z,11.60
2019-06-10T14:25:16.929Z,11.80
2019-06-10T14:27:44.343Z,12.10
2019-06-10T14:30:15.509Z,12.20
2019-06-10T14:32:44.590Z,12.50
2019-06-10T14:35:16.310Z,12.70
2019-06-10T14:37:44.186Z,12.90
2019-06-10T14:40:20.984Z,12.90
2019-06-10T14:42:44.197Z,13.00
2019-06-10T14:45:16.427Z,12.90
2019-06-10T14:47:44.354Z,12.80
2019-06-10T14:50:16.057Z,12.60
2019-06-10T14:52:45.751Z,12.60
2019-06-10T14:55:18.394Z,12.40
2019-06-10T14:57:45.586Z,12.30
2019-06-10T15:00:18.043Z,12.20
2019-06-10T15:02:46.621Z,12.20
2019-06-10T15:05:17.083Z,12.10
2019-06-10T15:07:47.571Z,12.20
2019-06-10T15:10:20.007Z,12.10
2019-06-10T15:12:48.927Z,12.10
2019-06-10T15:15:23.606Z,12.00
2019-06-10T15:17:52.649Z,12.00
2019-06-10T15:20:23.323Z,12.00
2019-06-10T15:22:52.778Z,12.00
2019-06-10T15:25:27.542Z,12.00
2019-06-10T15:27:53.207Z,11.90
2019-06-10T15:30:28.040Z,11.90
2019-06-10T15:32:54.093Z,11.90
2019-06-10T15:35:24.458Z,11.90
2019-06-10T15:37:53.623Z,11.90
2019-06-10T15:40:23.041Z,11.90
2019-06-10T15:42:53.309Z,11.90
2019-06-10T15:45:22.671Z,11.80
2019-06-10T15:47:53.233Z,11.80
2019-06-10T15:50:23.793Z,11.80
2019-06-10T15:52:52.881Z,11.80
2019-06-10T15:55:37.828Z,11.90
2019-06-10T15:57:54.316Z,11.90
2019-06-10T16:00:28.793Z,12.00
2019-06-10T16:02:54.992Z,12.00
2019-06-10T16:05:25.449Z,12.20
2019-06-10T16:07:54.494Z,12.30
2019-06-10T16:10:27.600Z,12.50
2019-06-10T16:12:55.532Z,12.60
2019-06-10T16:15:26.542Z,12.70
2019-06-10T16:17:54.983Z,12.80
2019-06-10T16:20:23.910Z,12.80
2019-06-10T16:22:52.842Z,12.80
2019-06-10T16:25:25.161Z,12.70
2019-06-10T16:27:54.417Z,12.70
2019-06-10T16:30:24.773Z,12.80
2019-06-10T16:32:53.691Z,12.80
2019-06-10T16:35:23.918Z,12.90
2019-06-10T16:37:56.549Z,12.90
2019-06-10T16:40:25.297Z,12.80
2019-06-10T16:42:54.484Z,12.60
2019-06-10T16:45:29.069Z,12.60
2019-06-10T16:47:54.583Z,12.70
2019-06-10T16:50:25.652Z,12.80
2019-06-10T16:52:54.475Z,12.80
2019-06-10T16:55:25.349Z,13.00
2019-06-10T16:57:59.582Z,13.70
2019-06-10T17:00:28.432Z,15.10
2019-06-10T17:02:57.648Z,15.10
2019-06-10T17:05:27.607Z,15.40
2019-06-10T17:07:57.174Z,15.70
2019-06-10T17:10:28.155Z,16.30
2019-06-10T17:13:03.197Z,16.30
2019-06-10T17:15:31.929Z,16.40
2019-06-10T17:18:02.857Z,16.50
2019-06-10T17:20:34.154Z,16.90
2019-06-10T17:23:21.740Z,16.60
2019-06-10T17:25:53.426Z,15.50
2019-06-10T17:28:27.124Z,15.10
2019-06-10T17:30:54.166Z,14.80
2019-06-10T17:33:25.821Z,14.40
2019-06-10T17:35:53.634Z,14.50
2019-06-10T17:38:22.855Z,15.30
2019-06-10T17:40:52.349Z,15.30
2019-06-10T17:43:25.223Z,15.70
2019-06-10T17:45:54.321Z,16.10
2019-06-10T17:48:25.154Z,16.10
2019-06-10T17:50:53.809Z,16.40
2019-06-10T17:53:24.188Z,16.10
2019-06-10T17:55:53.235Z,15.90
2019-06-10T17:58:33.319Z,15.00
2019-06-10T18:00:53.479Z,14.30
2019-06-10T18:03:24.335Z,13.80
2019-06-10T18:05:53.358Z,13.30
2019-06-10T18:08:24.257Z,13.30
2019-06-10T18:10:53.575Z,13.10
2019-06-10T18:13:24.623Z,12.90
2019-06-10T18:15:53.696Z,12.90
2019-06-10T18:18:22.649Z,12.80
2019-06-10T18:20:53.604Z,12.90
2019-06-10T18:23:23.307Z,12.80
2019-06-10T18:25:53.516Z,12.50
2019-06-10T18:28:22.765Z,12.40
2019-06-10T18:30:53.394Z,12.30
2019-06-10T18:33:23.318Z,12.20
2019-06-10T18:35:53.235Z,12.20
2019-06-10T18:38:22.598Z,12.40
2019-06-10T18:40:53.594Z,12.50
2019-06-10T18:43:22.905Z,12.40
2019-06-10T18:45:53.290Z,12.30
2019-06-10T18:48:24.795Z,12.30
2019-06-10T18:50:53.826Z,12.40
2019-06-10T18:53:23.858Z,12.50
2019-06-10T18:55:54.904Z,12.50
2019-06-10T18:58:24.085Z,12.40
2019-06-10T19:01:02.820Z,12.30
2019-06-10T19:03:23.752Z,12.20
2019-06-10T19:05:53.074Z,12.10
2019-06-10T19:08:22.566Z,12.00
2019-06-10T19:10:53.687Z,11.80
2019-06-10T19:13:22.845Z,11.70
2019-06-10T19:15:53.021Z,11.60
2019-06-10T19:18:23.368Z,11.70
2019-06-10T19:20:53.298Z,11.60
2019-06-10T19:23:23.052Z,11.60
2019-06-10T19:25:52.848Z,11.60
2019-06-10T19:28:22.868Z,11.70
2019-06-10T19:30:53.355Z,11.60
2019-06-10T19:33:23.614Z,11.60
2019-06-10T19:35:53.302Z,11.60
2019-06-10T19:38:24.088Z,11.60
2019-06-10T19:40:53.252Z,11.50
2019-06-10T19:43:22.165Z,11.50
2019-06-10T19:45:52.975Z,11.50
2019-06-10T19:48:21.793Z,11.40
2019-06-10T19:50:53.984Z,11.40
2019-06-10T19:53:23.179Z,11.40
2019-06-10T19:55:53.288Z,11.40
2019-06-10T19:58:32.340Z,11.30
2019-06-10T20:01:00.958Z,11.20
2019-06-10T20:03:32.523Z,11.20
2019-06-10T20:06:02.859Z,11.20
2019-06-10T20:08:33.035Z,11.20
2019-06-10T20:11:03.414Z,11.20
2019-06-10T20:13:34.395Z,11.20
2019-06-10T20:16:03.625Z,11.20
2019-06-10T20:18:33.187Z,11.20
2019-06-10T20:21:02.854Z,11.20
2019-06-10T20:23:33.318Z,11.20
2019-06-10T20:26:02.388Z,11.10
2019-06-10T20:28:32.123Z,11.00
2019-06-10T20:31:01.211Z,11.10
2019-06-10T20:33:35.885Z,11.00
2019-06-10T20:36:03.492Z,11.10
2019-06-10T20:38:33.019Z,11.10
2019-06-10T20:41:02.805Z,11.10
2019-06-10T20:43:32.900Z,11.10
2019-06-10T20:46:06.320Z,11.10
2019-06-10T20:48:35.628Z,11.10
2019-06-10T20:51:12.998Z,11.00
2019-06-10T20:53:49.929Z,10.90
2019-06-10T20:56:25.373Z,10.90
2019-06-10T20:59:02.945Z,10.90
2019-06-10T21:01:53.637Z,10.90
2019-06-10T21:04:22.925Z,10.80
2019-06-10T21:07:09.688Z,10.70
2019-06-10T21:09:56.242Z,10.60
2019-06-10T21:12:34.850Z,10.50
2019-06-10T21:15:16.234Z,10.40
2019-06-10T21:17:57.776Z,10.30
2019-06-10T21:20:27.946Z,10.20
2019-06-10T21:23:15.483Z,10.10
2019-06-10T21:25:55.727Z,10.00
2019-06-10T21:28:45.578Z,9.90
2019-06-10T21:31:29.383Z,9.80
2019-06-10T21:33:56.537Z,9.70
2019-06-10T21:36:25.518Z,9.70
2019-06-10T21:38:55.683Z,9.60
2019-06-10T21:41:25.063Z,9.60
2019-06-10T21:43:59.282Z,9.60
2019-06-10T21:46:24.606Z,9.60
2019-06-10T21:48:55.982Z,9.60
2019-06-10T21:51:25.167Z,9.60
2019-06-10T21:53:55.221Z,9.60
2019-06-10T21:56:24.365Z,9.60
2019-06-10T21:58:55.041Z,9.70
2019-06-10T22:01:24.147Z,9.70
2019-06-10T22:04:00.218Z,9.70
2019-06-10T22:06:23.605Z,9.70
2019-06-10T22:08:56.740Z,9.70
2019-06-10T22:11:25.777Z,9.70
2019-06-10T22:13:56.242Z,9.70
2019-06-10T22:16:25.276Z,9.70
2019-06-10T22:18:54.965Z,9.70
2019-06-10T22:21:24.077Z,9.60
2019-06-10T22:23:55.208Z,9.50
2019-06-10T22:26:23.607Z,9.50
2019-06-10T22:28:55.687Z,9.40
2019-06-10T22:31:26.236Z,9.40
2019-06-10T22:33:55.811Z,9.30
2019-06-10T22:36:24.473Z,9.30
2019-06-10T22:38:55.826Z,9.20
2019-06-10T22:41:23.996Z,9.20
2019-06-10T22:43:55.880Z,9.10
2019-06-10T22:46:24.266Z,9.10
2019-06-10T22:48:53.496Z,9.00
2019-06-10T22:51:22.874Z,9.00
2019-06-10T22:53:54.859Z,9.00
2019-06-10T22:56:22.559Z,9.00
2019-06-10T22:58:53.921Z,9.00
2019-06-10T23:01:33.627Z,9.10
2019-06-10T23:03:52.574Z,9.10
2019-06-10T23:06:23.187Z,9.20
2019-06-10T23:08:56.011Z,9.20
2019-06-10T23:11:24.187Z,9.20
2019-06-10T23:13:54.710Z,9.30
2019-06-10T23:16:23.692Z,9.20
2019-06-10T23:18:56.830Z,9.30
2019-06-10T23:21:26.345Z,9.20
2019-06-10T23:23:56.826Z,9.10
2019-06-10T23:26:25.838Z,9.20
2019-06-10T23:28:58.725Z,9.10
2019-06-10T23:31:27.761Z,9.10
2019-06-10T23:33:56.694Z,9.10
2019-06-10T23:36:25.671Z,9.20
2019-06-10T23:38:54.835Z,9.20
2019-06-10T23:41:24.027Z,9.20
2019-06-10T23:43:53.070Z,9.20
2019-06-10T23:46:22.734Z,9.20
2019-06-10T23:48:51.769Z,9.10
2019-06-10T23:51:22.807Z,9.20
2019-06-10T23:53:54.423Z,9.10
2019-06-10T23:56:22.220Z,9.10
2019-06-10T23:58:52.833Z,9.10
